logo
Rechercher aéroport 
image banner adimage banner adimage banner ad
image banner ad

14L - Devonshire Area

Situé à Los Angeles, United States

ICAO - 14L, IATA -

Données fournies par Airmate  

Information générale

Coordonnées: N34°15'25" W118°31'53"
Élévation : 1012 feet MSL.
Variation magnétique : 14° East
Voir autres Aéroports à California

Données opérationnelles

Special qualification required
Heure actuelle UTC:
Heure actuelle locale:
Météo à : KVNY - Van Nuys ( 6 km )
METAR: KVNY 281251Z 27003KT 10SM CLR 22/14 A2990 RMK AO2 SLP114 T02220144
TAF: KVNY 281148Z 2812/2912 VRB03KT P6SM SKC FM282000 14008KT P6SM SKC FM290000 29008KT P6SM SKC FM290300 VRB03KT P6SM SKC
Voir NOTAMs / SUP AIP / TFR affectant cet aéroport [VIEW]
Fréquences de communication: [VIEW]

Pistes:

Coordonnées de l'aéroport

Adresse: Los Angeles United States

Vue satellite de 14L